createdAt,value
2019-01-25T00:00:24.795Z,15.50
2019-01-25T00:02:55.737Z,15.53
2019-01-25T00:05:26.525Z,15.59
2019-01-25T00:07:59.331Z,15.52
2019-01-25T00:10:31.858Z,15.48
2019-01-25T00:13:03.837Z,15.37
2019-01-25T00:15:35.656Z,15.38
2019-01-25T00:18:07.583Z,15.41
2019-01-25T00:20:38.782Z,15.40
2019-01-25T00:23:10.609Z,15.48
2019-01-25T00:25:42.423Z,15.29
2019-01-25T00:28:14.320Z,15.29
2019-01-25T00:30:45.917Z,15.41
2019-01-25T00:33:18.274Z,15.47
2019-01-25T00:35:50.422Z,15.41
2019-01-25T00:38:24.343Z,15.37
2019-01-25T00:40:56.873Z,15.31
2019-01-25T00:43:28.787Z,15.36
2019-01-25T00:45:59.525Z,15.46
2019-01-25T00:48:31.799Z,15.70
2019-01-25T00:51:02.517Z,15.70
2019-01-25T00:53:34.921Z,15.85
2019-01-25T00:56:07.679Z,15.86
2019-01-25T00:58:39.399Z,15.93
2019-01-25T01:01:11.338Z,15.93
2019-01-25T01:03:42.997Z,15.97
2019-01-25T01:06:14.807Z,16.01
2019-01-25T01:08:45.505Z,16.02
2019-01-25T01:11:17.435Z,15.97
2019-01-25T01:13:49.097Z,15.94
2019-01-25T01:16:20.827Z,15.89
2019-01-25T01:18:52.630Z,15.96
2019-01-25T01:21:23.776Z,15.89
2019-01-25T01:23:55.547Z,15.83
2019-01-25T01:26:27.932Z,15.73
2019-01-25T01:28:59.779Z,15.72
2019-01-25T01:31:30.960Z,15.81
2019-01-25T01:34:02.745Z,15.87
2019-01-25T01:36:33.677Z,15.81
2019-01-25T01:39:07.267Z,15.79
2019-01-25T01:41:38.871Z,15.84
2019-01-25T01:44:10.737Z,15.70
2019-01-25T01:46:41.622Z,15.72
2019-01-25T01:49:13.741Z,15.62
2019-01-25T01:51:44.641Z,15.62
2019-01-25T01:54:16.439Z,15.63
2019-01-25T01:56:48.306Z,15.63
2019-01-25T01:59:19.836Z,15.56
2019-01-25T02:01:51.840Z,15.63
2019-01-25T02:04:23.751Z,15.60
2019-01-25T02:06:54.518Z,15.57
2019-01-25T02:09:26.332Z,15.60
2019-01-25T02:11:57.977Z,15.52
2019-01-25T02:14:30.305Z,15.50
2019-01-25T02:17:01.917Z,15.50
2019-01-25T02:19:33.835Z,15.44
2019-01-25T02:22:05.887Z,15.39
2019-01-25T02:24:37.709Z,15.31
2019-01-25T02:27:09.781Z,15.15
2019-01-25T02:29:40.533Z,15.15
2019-01-25T02:32:12.283Z,15.19
2019-01-25T02:34:43.853Z,15.30
2019-01-25T02:37:15.444Z,15.39
2019-01-25T02:39:47.288Z,15.49
2019-01-25T02:42:19.079Z,15.71
2019-01-25T02:44:50.816Z,15.75
2019-01-25T02:47:22.637Z,15.84
2019-01-25T02:49:54.371Z,15.86
2019-01-25T02:52:26.066Z,15.86
2019-01-25T02:54:57.832Z,15.85
2019-01-25T02:57:29.613Z,15.87
2019-01-25T03:00:01.378Z,15.91
2019-01-25T03:02:33.091Z,15.91
2019-01-25T03:05:04.761Z,15.84
2019-01-25T03:07:35.524Z,15.70
2019-01-25T03:10:10.321Z,15.61
2019-01-25T03:12:42.330Z,15.72
2019-01-25T03:15:18.760Z,15.89
2019-01-25T03:17:49.683Z,15.74
2019-01-25T03:20:21.764Z,15.78
2019-01-25T03:22:52.501Z,15.75
2019-01-25T03:25:29.087Z,15.74
2019-01-25T03:28:00.836Z,15.76
2019-01-25T03:30:33.080Z,15.78
2019-01-25T03:33:04.774Z,15.83
2019-01-25T03:35:35.466Z,15.86
2019-01-25T03:38:07.304Z,15.76
2019-01-25T03:40:38.876Z,15.65
2019-01-25T03:43:10.782Z,15.71
2019-01-25T03:45:41.465Z,15.64
2019-01-25T03:48:13.312Z,15.58
2019-01-25T03:50:44.853Z,15.52
2019-01-25T03:53:16.606Z,15.52
2019-01-25T03:55:48.374Z,15.61
2019-01-25T03:58:21.806Z,15.61
2019-01-25T04:00:53.591Z,15.58
2019-01-25T04:03:25.311Z,15.40
2019-01-25T04:05:56.862Z,15.40
2019-01-25T04:08:28.725Z,15.46
2019-01-25T04:11:03.755Z,15.48
2019-01-25T04:13:32.871Z,15.41
2019-01-25T04:16:04.775Z,15.44
2019-01-25T04:18:35.452Z,15.61
2019-01-25T04:21:07.313Z,15.74
2019-01-25T04:23:38.845Z,15.83
2019-01-25T04:26:10.786Z,15.88
2019-01-25T04:28:41.463Z,15.94
2019-01-25T04:31:13.320Z,15.94
2019-01-25T04:33:44.832Z,15.91
2019-01-25T04:36:16.632Z,15.94
2019-01-25T04:38:48.376Z,15.99
2019-01-25T04:41:20.803Z,15.99
2019-01-25T04:43:52.849Z,15.95
2019-01-25T04:46:24.863Z,15.85
2019-01-25T04:48:56.844Z,15.80
2019-01-25T04:51:28.778Z,15.67
2019-01-25T04:53:59.525Z,15.63
2019-01-25T04:56:33.090Z,15.76
2019-01-25T04:59:15.329Z,15.70
2019-01-25T05:01:47.013Z,15.69
2019-01-25T05:04:18.830Z,15.88
2019-01-25T05:06:50.802Z,15.79
2019-01-25T05:09:22.604Z,15.74
2019-01-25T05:11:54.359Z,15.56
2019-01-25T05:14:26.087Z,15.56
2019-01-25T05:16:57.782Z,15.58
2019-01-25T05:19:28.665Z,15.56
2019-01-25T05:22:00.368Z,15.52
2019-01-25T05:24:32.410Z,15.52
2019-01-25T05:27:04.313Z,15.56
2019-01-25T05:29:57.318Z,15.48
2019-01-25T05:32:29.006Z,15.53
2019-01-25T05:35:00.841Z,15.45
2019-01-25T05:37:32.601Z,15.41
2019-01-25T05:40:04.007Z,15.55
2019-01-25T05:42:35.389Z,15.47
2019-01-25T05:45:13.449Z,15.33
2019-01-25T05:47:45.321Z,15.36
2019-01-25T05:50:17.341Z,15.35
2019-01-25T05:52:48.927Z,15.40
2019-01-25T05:55:22.768Z,15.42
2019-01-25T05:58:01.318Z,15.62
2019-01-25T06:00:38.336Z,15.58
2019-01-25T06:03:18.363Z,15.60
2019-01-25T06:05:50.061Z,15.67
2019-01-25T06:08:32.799Z,15.74
2019-01-25T06:11:08.708Z,15.83
2019-01-25T06:13:40.631Z,15.83
2019-01-25T06:16:12.417Z,15.80
2019-01-25T06:18:44.073Z,15.80
2019-01-25T06:21:16.789Z,15.67
2019-01-25T06:23:47.495Z,15.75
2019-01-25T06:26:19.316Z,15.81
2019-01-25T06:28:54.316Z,15.81
2019-01-25T06:31:25.914Z,15.75
2019-01-25T06:33:57.790Z,15.77
2019-01-25T06:36:28.476Z,15.81
2019-01-25T06:39:00.283Z,15.83
2019-01-25T06:41:32.271Z,15.79
2019-01-25T06:44:03.868Z,15.78
2019-01-25T06:46:35.735Z,15.65
2019-01-25T06:49:07.377Z,15.62
2019-01-25T06:51:39.067Z,15.58
2019-01-25T06:54:10.784Z,15.49
2019-01-25T06:56:41.483Z,15.55
2019-01-25T06:59:16.377Z,15.60
2019-01-25T07:01:52.074Z,15.57
2019-01-25T07:04:23.793Z,15.42
2019-01-25T07:06:54.769Z,15.49
2019-01-25T07:09:26.404Z,15.45
2019-01-25T07:11:58.070Z,15.62
2019-01-25T07:14:29.726Z,15.67
2019-01-25T07:17:00.464Z,15.51
2019-01-25T07:19:32.088Z,15.60
2019-01-25T07:22:03.780Z,15.49
2019-01-25T07:24:35.389Z,15.56
2019-01-25T07:27:07.077Z,15.57
2019-01-25T07:29:38.876Z,15.40
2019-01-25T07:32:10.842Z,15.46
2019-01-25T07:34:42.695Z,15.39
2019-01-25T07:37:14.366Z,15.45
2019-01-25T07:39:46.075Z,15.45
2019-01-25T07:42:17.818Z,15.69
2019-01-25T07:44:49.767Z,15.69
2019-01-25T07:47:21.463Z,15.75
2019-01-25T07:49:53.329Z,15.78
2019-01-25T07:52:25.097Z,15.76
2019-01-25T07:54:56.861Z,15.83
2019-01-25T07:57:28.785Z,15.89
2019-01-25T08:00:00.679Z,15.89
2019-01-25T08:02:35.787Z,15.92
2019-01-25T08:05:07.621Z,15.92
2019-01-25T08:07:39.403Z,15.81
2019-01-25T08:10:15.278Z,15.81
2019-01-25T08:12:47.480Z,15.81
2019-01-25T08:15:20.765Z,15.64
2019-01-25T08:17:51.494Z,15.64
2019-01-25T08:20:23.376Z,15.83
2019-01-25T08:22:55.270Z,15.84
2019-01-25T08:25:26.923Z,15.77
2019-01-25T08:27:58.763Z,15.72
2019-01-25T08:30:29.542Z,15.79
2019-01-25T08:33:00.657Z,15.67
2019-01-25T08:35:32.646Z,15.72
2019-01-25T08:38:06.382Z,15.72
2019-01-25T08:40:37.746Z,15.69
2019-01-25T08:43:09.001Z,15.78
2019-01-25T08:45:40.784Z,15.83
2019-01-25T08:48:11.486Z,15.74
2019-01-25T08:50:43.312Z,15.68
2019-01-25T08:53:15.117Z,15.57
2019-01-25T08:55:46.749Z,15.65
2019-01-25T08:58:17.552Z,15.62
2019-01-25T09:00:49.386Z,15.72
2019-01-25T09:03:21.090Z,15.72
2019-01-25T09:05:52.722Z,15.58
2019-01-25T09:08:26.456Z,15.52
2019-01-25T09:10:58.301Z,15.60
2019-01-25T09:13:29.860Z,15.79
2019-01-25T09:16:01.407Z,15.73
2019-01-25T09:18:33.166Z,15.73
2019-01-25T09:21:04.743Z,15.76
2019-01-25T09:23:36.457Z,15.72
2019-01-25T09:26:08.314Z,15.63
2019-01-25T09:28:40.313Z,15.78
2019-01-25T09:31:12.312Z,15.89
2019-01-25T09:33:43.867Z,15.81
2019-01-25T09:36:15.389Z,15.64
2019-01-25T09:38:47.310Z,15.70
2019-01-25T09:41:18.840Z,15.75
2019-01-25T09:43:50.630Z,15.80
2019-01-25T09:46:22.360Z,15.85
2019-01-25T09:48:54.059Z,15.85
2019-01-25T09:51:25.785Z,15.88
2019-01-25T09:53:57.381Z,16.00
2019-01-25T09:56:29.033Z,16.07
2019-01-25T09:59:01.759Z,15.93
2019-01-25T10:01:32.640Z,15.86
2019-01-25T10:04:03.805Z,15.85
2019-01-25T10:06:36.331Z,15.89
2019-01-25T10:09:11.349Z,15.95
2019-01-25T10:11:43.345Z,16.00
2019-01-25T10:14:15.067Z,15.92
2019-01-25T10:16:47.294Z,15.94
2019-01-25T10:19:18.865Z,16.09
2019-01-25T10:21:50.767Z,16.15
2019-01-25T10:24:21.611Z,16.12
2019-01-25T10:26:53.604Z,16.16
2019-01-25T10:29:25.368Z,16.16
2019-01-25T10:31:57.066Z,16.16
2019-01-25T10:34:28.762Z,16.08
2019-01-25T10:37:00.730Z,16.10
2019-01-25T10:39:31.487Z,16.03
2019-01-25T10:42:03.313Z,16.02
2019-01-25T10:44:34.859Z,16.00
2019-01-25T10:47:06.397Z,16.08
2019-01-25T10:49:38.300Z,16.03
2019-01-25T10:52:11.710Z,15.89
2019-01-25T10:54:43.406Z,15.92
2019-01-25T10:57:15.267Z,15.93
2019-01-25T10:59:46.988Z,15.93
2019-01-25T11:02:18.766Z,16.01
2019-01-25T11:04:49.750Z,15.94
2019-01-25T11:07:20.460Z,15.89
2019-01-25T11:09:54.797Z,16.04
2019-01-25T11:12:26.398Z,15.96
2019-01-25T11:14:58.306Z,16.05
2019-01-25T11:17:36.261Z,16.02
2019-01-25T11:20:03.374Z,16.03
2019-01-25T11:22:35.373Z,16.03
2019-01-25T11:25:10.911Z,15.92
2019-01-25T11:27:42.620Z,15.89
2019-01-25T11:30:15.760Z,15.84
2019-01-25T11:32:46.454Z,15.84
2019-01-25T11:35:18.368Z,15.94
2019-01-25T11:37:50.066Z,15.87
2019-01-25T11:40:32.848Z,16.03
2019-01-25T11:43:08.804Z,16.00
2019-01-25T11:45:38.303Z,15.97
2019-01-25T11:48:15.299Z,16.07
2019-01-25T11:50:46.861Z,16.08
2019-01-25T11:53:18.657Z,15.97
2019-01-25T11:55:50.335Z,15.93
2019-01-25T11:58:23.310Z,15.93
2019-01-25T12:00:54.836Z,15.95
2019-01-25T12:03:26.596Z,16.08
2019-01-25T12:05:58.678Z,16.14
2019-01-25T12:08:30.621Z,16.06
2019-01-25T12:11:02.357Z,16.35
2019-01-25T12:13:34.299Z,16.35
2019-01-25T12:16:06.298Z,16.40
2019-01-25T12:18:37.820Z,16.26
2019-01-25T12:21:09.407Z,16.31
2019-01-25T12:23:41.314Z,16.34
2019-01-25T12:26:12.856Z,16.36
2019-01-25T12:28:44.666Z,16.34
2019-01-25T12:31:16.386Z,16.18
2019-01-25T12:33:48.302Z,16.18
2019-01-25T12:36:19.833Z,15.96
2019-01-25T12:38:51.575Z,16.04
2019-01-25T12:41:23.382Z,16.17
2019-01-25T12:43:55.048Z,16.17
2019-01-25T12:46:26.777Z,16.21
2019-01-25T12:48:57.488Z,16.25
2019-01-25T12:52:08.270Z,16.18
2019-01-25T12:54:37.748Z,16.23
2019-01-25T12:57:09.618Z,16.19
2019-01-25T12:59:41.666Z,16.25
2019-01-25T13:02:13.393Z,16.18
2019-01-25T13:04:45.296Z,16.18
2019-01-25T13:07:17.062Z,16.24
2019-01-25T13:09:48.750Z,16.17
2019-01-25T13:12:19.937Z,16.23
2019-01-25T13:14:51.729Z,16.03
2019-01-25T13:17:22.466Z,16.06
2019-01-25T13:19:54.296Z,16.12
2019-01-25T13:22:25.800Z,16.15
2019-01-25T13:24:57.405Z,16.15
2019-01-25T13:27:29.845Z,15.96
2019-01-25T13:30:01.379Z,16.05
2019-01-25T13:32:33.373Z,16.07
2019-01-25T13:35:06.035Z,16.19
2019-01-25T13:37:37.746Z,16.05
2019-01-25T13:40:12.759Z,16.05
2019-01-25T13:42:44.393Z,16.02
2019-01-25T13:45:18.759Z,16.09
2019-01-25T13:47:50.393Z,16.06
2019-01-25T13:50:28.309Z,15.97
2019-01-25T13:52:59.859Z,15.98
2019-01-25T13:55:31.773Z,16.09
2019-01-25T13:58:02.468Z,16.14
2019-01-25T14:00:35.825Z,16.19
2019-01-25T14:03:07.602Z,16.18
2019-01-25T14:05:39.371Z,16.15
2019-01-25T14:08:11.301Z,16.15
2019-01-25T14:10:42.989Z,16.10
2019-01-25T14:13:14.791Z,16.01
2019-01-25T14:15:45.611Z,16.06
2019-01-25T14:18:17.368Z,15.83
2019-01-25T14:20:49.766Z,15.83
2019-01-25T14:23:22.294Z,15.93
2019-01-25T14:25:53.937Z,15.88
2019-01-25T14:28:25.786Z,15.91
2019-01-25T14:30:56.457Z,16.01
2019-01-25T14:33:28.304Z,15.96
2019-01-25T14:35:59.798Z,15.82
2019-01-25T14:38:31.685Z,15.87
2019-01-25T14:41:02.482Z,15.92
2019-01-25T14:43:34.308Z,15.98
2019-01-25T14:46:05.959Z,16.06
2019-01-25T14:48:38.316Z,16.05
2019-01-25T14:51:10.317Z,16.08
2019-01-25T14:53:41.886Z,16.14
2019-01-25T14:56:13.640Z,16.02
2019-01-25T14:58:45.398Z,16.10
2019-01-25T15:01:17.353Z,16.10
2019-01-25T15:03:49.728Z,15.95
2019-01-25T15:06:20.636Z,15.94
2019-01-25T15:08:52.393Z,15.96
2019-01-25T15:11:24.074Z,15.96
2019-01-25T15:14:02.306Z,15.82
2019-01-25T15:16:29.318Z,16.57
2019-01-25T15:19:01.622Z,16.91
2019-01-25T15:21:33.825Z,17.49
2019-01-25T15:24:05.619Z,17.49
2019-01-25T15:26:37.741Z,17.86
2019-01-25T15:29:08.500Z,17.86
2019-01-25T15:31:40.634Z,18.11
2019-01-25T15:34:12.369Z,18.49
2019-01-25T15:36:44.062Z,18.49
2019-01-25T15:39:15.795Z,18.64
2019-01-25T15:41:46.595Z,18.64
2019-01-25T15:44:18.380Z,18.79
2019-01-25T15:46:50.037Z,18.79
2019-01-25T15:49:21.737Z,18.86
2019-01-25T15:51:52.501Z,18.79
2019-01-25T15:54:24.400Z,18.81
2019-01-25T15:56:56.073Z,18.63
2019-01-25T15:59:27.805Z,18.46
2019-01-25T16:01:59.753Z,18.35
2019-01-25T16:04:34.854Z,18.17
2019-01-25T16:07:03.802Z,18.03
2019-01-25T16:09:35.352Z,17.99
2019-01-25T16:12:07.616Z,17.89
2019-01-25T16:14:39.377Z,17.58
2019-01-25T16:17:11.080Z,17.58
2019-01-25T16:19:42.765Z,17.48
2019-01-25T16:22:14.654Z,17.31
2019-01-25T16:24:46.428Z,17.00
2019-01-25T16:27:18.046Z,17.00
2019-01-25T16:29:50.357Z,16.93
2019-01-25T16:32:22.028Z,16.76
2019-01-25T16:34:53.797Z,16.55
2019-01-25T16:37:24.723Z,16.37
2019-01-25T16:39:56.423Z,16.08
2019-01-25T16:42:28.597Z,15.90
2019-01-25T16:45:00.367Z,15.88
2019-01-25T16:47:32.129Z,15.88
2019-01-25T16:50:03.794Z,16.05
2019-01-25T16:52:35.421Z,16.42
2019-01-25T16:55:09.350Z,16.87
2019-01-25T16:57:41.296Z,16.96
2019-01-25T17:00:51.556Z,16.93
2019-01-25T17:03:23.404Z,17.09
2019-01-25T17:05:55.077Z,17.09
2019-01-25T17:08:26.761Z,17.17
2019-01-25T17:10:57.719Z,17.17
2019-01-25T17:13:28.889Z,17.24
2019-01-25T17:16:00.791Z,17.23
2019-01-25T17:18:31.490Z,17.15
2019-01-25T17:21:03.309Z,17.03
2019-01-25T17:23:35.379Z,16.86
2019-01-25T17:26:07.121Z,16.71
2019-01-25T17:28:39.757Z,16.62
2019-01-25T17:31:10.489Z,16.53
2019-01-25T17:33:42.627Z,16.47
2019-01-25T17:36:14.354Z,15.93
2019-01-25T17:38:46.069Z,15.93
2019-01-25T17:41:17.829Z,15.85
2019-01-25T17:43:49.623Z,15.82
2019-01-25T17:46:21.358Z,16.38
2019-01-25T17:48:53.044Z,16.38
2019-01-25T17:51:24.814Z,16.70
2019-01-25T17:53:56.513Z,16.57
2019-01-25T17:56:28.316Z,16.19
2019-01-25T17:58:59.912Z,16.33
2019-01-25T18:01:31.776Z,16.52
2019-01-25T18:04:03.754Z,16.70
2019-01-25T18:06:35.329Z,16.82
2019-01-25T18:09:09.413Z,16.93
2019-01-25T18:11:41.308Z,17.13
2019-01-25T18:16:02.475Z,17.54
2019-01-25T18:18:34.310Z,17.54
2019-01-25T18:21:05.859Z,17.55
2019-01-25T18:23:37.747Z,17.53
2019-01-25T18:26:24.940Z,17.57
2019-01-25T18:29:46.977Z,17.46
2019-01-25T18:32:18.754Z,17.22
2019-01-25T18:34:49.945Z,16.94
2019-01-25T18:37:21.767Z,16.86
2019-01-25T18:39:52.561Z,16.76
2019-01-25T18:42:33.487Z,16.30
2019-01-25T18:45:05.775Z,16.30
2019-01-25T18:47:36.609Z,15.97
2019-01-25T18:50:11.306Z,16.20
2019-01-25T18:52:43.310Z,16.20
2019-01-25T18:55:19.289Z,16.66
2019-01-25T18:57:51.088Z,16.88
2019-01-25T19:00:23.773Z,17.22
2019-01-25T19:02:58.418Z,16.98
2019-01-25T19:05:30.067Z,16.78
2019-01-25T19:08:01.791Z,17.05
2019-01-25T19:10:33.609Z,17.25
2019-01-25T19:13:05.380Z,17.08
2019-01-25T19:15:37.385Z,17.08
2019-01-25T19:18:09.061Z,16.94
2019-01-25T19:20:40.768Z,16.91
2019-01-25T19:23:12.605Z,16.81
2019-01-25T19:25:44.366Z,17.76
2019-01-25T19:28:16.300Z,17.76
2019-01-25T19:30:49.300Z,18.06
2019-01-25T19:33:20.988Z,18.25
2019-01-25T19:35:52.722Z,18.41
2019-01-25T19:38:24.527Z,18.62
2019-01-25T19:40:56.408Z,18.76
2019-01-25T19:43:28.267Z,18.85
2019-01-25T19:45:59.834Z,18.83
2019-01-25T19:48:31.407Z,18.78
2019-01-25T19:51:03.062Z,18.84
2019-01-25T19:53:35.801Z,18.76
2019-01-25T19:56:07.771Z,18.63
2019-01-25T19:58:38.488Z,18.48
2019-01-25T20:01:10.302Z,18.41
2019-01-25T20:03:41.837Z,18.40
2019-01-25T20:06:13.611Z,18.18
2019-01-25T20:08:45.373Z,17.74
2019-01-25T20:11:17.556Z,17.74
2019-01-25T20:13:50.302Z,17.61
2019-01-25T20:16:21.825Z,17.61
2019-01-25T20:18:53.880Z,17.44
2019-01-25T20:21:26.669Z,17.50
2019-01-25T20:23:57.566Z,17.31
2019-01-25T20:26:28.628Z,17.14
2019-01-25T20:29:00.438Z,16.79
2019-01-25T20:31:32.040Z,16.79
2019-01-25T20:34:03.792Z,16.60
2019-01-25T20:36:43.745Z,16.79
2019-01-25T20:39:14.492Z,17.41
2019-01-25T20:41:46.300Z,17.41
2019-01-25T20:44:22.298Z,17.46
2019-01-25T20:46:54.066Z,17.30
2019-01-25T20:49:25.852Z,17.40
2019-01-25T20:51:59.694Z,17.43
2019-01-25T20:54:30.489Z,17.43
2019-01-25T20:57:02.326Z,17.41
2019-01-25T20:59:34.306Z,17.35
2019-01-25T21:02:06.362Z,17.25
2019-01-25T21:04:38.297Z,17.15
2019-01-25T21:07:09.817Z,17.15
2019-01-25T21:09:41.615Z,17.23
2019-01-25T21:12:13.285Z,17.06
2019-01-25T21:14:44.868Z,17.06
2019-01-25T21:17:16.646Z,16.92
2019-01-25T21:19:48.332Z,16.89
2019-01-25T21:22:20.054Z,16.89
2019-01-25T21:24:52.262Z,16.89
2019-01-25T21:27:23.992Z,16.78
2019-01-25T21:29:55.700Z,16.71
2019-01-25T21:32:26.472Z,16.75
2019-01-25T21:34:58.267Z,16.68
2019-01-25T21:37:30.329Z,16.76
2019-01-25T21:40:08.502Z,16.69
2019-01-25T21:42:35.758Z,16.67
2019-01-25T21:45:09.366Z,16.60
2019-01-25T21:47:41.362Z,16.60
2019-01-25T21:50:16.787Z,16.62
2019-01-25T21:52:47.547Z,16.52
2019-01-25T21:55:19.509Z,16.54
2019-01-25T21:57:51.747Z,16.54
2019-01-25T22:00:25.716Z,16.50
2019-01-25T22:02:57.569Z,16.52
2019-01-25T22:05:29.301Z,16.37
2019-01-25T22:08:01.722Z,16.37
2019-01-25T22:10:38.802Z,16.37
2019-01-25T22:13:10.577Z,16.40
2019-01-25T22:15:42.264Z,16.37
2019-01-25T22:18:13.876Z,16.37
2019-01-25T22:20:45.794Z,16.30
2019-01-25T22:23:17.063Z,16.33
2019-01-25T22:25:49.074Z,16.45
2019-01-25T22:28:20.746Z,16.58
2019-01-25T22:30:51.503Z,16.53
2019-01-25T22:33:23.306Z,16.57
2019-01-25T22:35:54.884Z,16.57
2019-01-25T22:38:26.765Z,16.55
2019-01-25T22:40:57.469Z,16.58
2019-01-25T22:43:29.300Z,16.55
2019-01-25T22:46:01.314Z,16.58
2019-01-25T22:48:33.533Z,16.53
2019-01-25T22:51:04.436Z,16.50
2019-01-25T22:53:36.423Z,16.45
2019-01-25T22:56:08.292Z,16.49
2019-01-25T22:58:39.874Z,16.44
2019-01-25T23:01:27.748Z,16.46
2019-01-25T23:05:05.259Z,16.52
2019-01-25T23:07:36.873Z,16.39
2019-01-25T23:10:21.764Z,16.44
2019-01-25T23:12:53.066Z,16.44
2019-01-25T23:15:24.806Z,16.40
2019-01-25T23:17:56.462Z,16.43
2019-01-25T23:20:28.728Z,16.51
2019-01-25T23:23:00.354Z,16.47
2019-01-25T23:25:32.300Z,16.49
2019-01-25T23:28:03.843Z,16.46
2019-01-25T23:30:35.746Z,16.46
2019-01-25T23:33:06.469Z,16.50
2019-01-25T23:35:38.305Z,16.51
2019-01-25T23:38:10.002Z,16.53
2019-01-25T23:40:41.798Z,16.57
2019-01-25T23:43:13.585Z,16.52
2019-01-25T23:45:45.368Z,16.48
2019-01-25T23:48:17.065Z,16.48
2019-01-25T23:50:48.885Z,16.60
2019-01-25T23:53:20.770Z,16.55
2019-01-25T23:55:51.544Z,16.57
2019-01-25T23:58:25.069Z,16.61
